Time;durP1;ratioP1;P1;durP2;ratioP2;P2;SDS_P1;SDS_P2;PMS_P1;PMS_P2;Temp;Humidity;BMP_temperature;BMP_pressure;BME280_temperature;BME280_humidity;BME280_pressure;Samples;Min_cycle;Max_cycle;Signal;HPM_P1;HPM_P2
2021/05/28 00:00:01;;;;;;;9.45;2.70;;;13.50;99.90;;;;;;5032099;28;20049;-64
2021/05/28 00:03:05;;;;;;;12.77;3.05;;;13.50;99.90;;;;;;5032526;28;20044;-64
2021/05/28 00:06:10;;;;;;;8.18;2.40;;;13.50;99.90;;;;;;5032236;28;20052;-65
2021/05/28 00:09:16;;;;;;;14.20;2.85;;;13.40;99.90;;;;;;5031409;28;20392;-65
2021/05/28 00:12:20;;;;;;;6.07;2.53;;;13.40;99.90;;;;;;5032017;28;20396;-64
2021/05/28 00:15:26;;;;;;;6.78;2.53;;;13.40;99.90;;;;;;5031489;28;20048;-64
2021/05/28 00:18:30;;;;;;;13.65;2.92;;;13.40;99.90;;;;;;5031809;28;20381;-64
2021/05/28 00:21:34;;;;;;;7.95;2.60;;;13.40;99.90;;;;;;5031512;28;20041;-65
2021/05/28 00:24:38;;;;;;;6.20;2.13;;;13.30;99.90;;;;;;5031046;28;20036;-65
2021/05/28 00:27:43;;;;;;;9.80;2.90;;;13.30;99.90;;;;;;5031832;28;20060;-65
2021/05/28 00:30:58;;;;;;;6.80;2.40;;;13.30;99.90;;;;;;5030390;28;20523;-64
2021/05/28 00:34:02;;;;;;;9.55;2.75;;;13.30;99.90;;;;;;5031681;28;20052;-64
2021/05/28 00:37:07;;;;;;;8.07;2.88;;;13.30;99.90;;;;;;5031466;28;20400;-64
2021/05/28 00:40:12;;;;;;;12.80;2.92;;;13.30;99.90;;;;;;5030455;28;20397;-65
2021/05/28 00:43:16;;;;;;;6.55;2.92;;;13.20;99.90;;;;;;5031858;28;20048;-64
2021/05/28 00:46:21;;;;;;;7.32;2.90;;;13.20;99.90;;;;;;5031252;28;20052;-64
2021/05/28 00:49:25;;;;;;;6.70;3.30;;;13.10;99.90;;;;;;5031431;28;20045;-64
2021/05/28 00:52:29;;;;;;;9.07;3.13;;;13.10;99.90;;;;;;5031314;28;20048;-64
2021/05/28 00:55:35;;;;;;;14.23;2.65;;;13.10;99.90;;;;;;5030360;28;20048;-64
2021/05/28 00:58:40;;;;;;;7.95;2.38;;;13.10;99.90;;;;;;5031056;28;20048;-65
2021/05/28 01:01:48;;;;;;;9.93;2.95;;;13.10;99.90;;;;;;5030678;28;20044;-65
2021/05/28 01:04:54;;;;;;;6.22;2.53;;;13.10;99.90;;;;;;5031278;28;20056;-64
2021/05/28 01:07:58;;;;;;;6.70;2.38;;;13.10;99.90;;;;;;5031085;28;20048;-64
2021/05/28 01:11:04;;;;;;;7.72;2.45;;;13.00;99.90;;;;;;5022958;28;20053;-65
2021/05/28 01:14:09;;;;;;;10.38;2.30;;;13.00;99.90;;;;;;5015569;28;20041;-65
2021/05/28 01:17:13;;;;;;;8.80;2.72;;;13.00;99.90;;;;;;5010989;28;20048;-65
2021/05/28 01:20:17;;;;;;;10.05;2.75;;;13.00;99.90;;;;;;5025995;28;20381;-65
2021/05/28 01:23:22;;;;;;;5.65;2.45;;;12.90;99.90;;;;;;5030503;28;20135;-65
2021/05/28 01:26:27;;;;;;;8.10;2.60;;;12.90;99.90;;;;;;5029671;28;20099;-65
2021/05/28 01:29:31;;;;;;;6.18;2.78;;;12.90;99.90;;;;;;5010922;28;20481;-65
2021/05/28 01:32:35;;;;;;;9.02;2.75;;;12.80;99.90;;;;;;5011116;28;20046;-64
2021/05/28 01:35:40;;;;;;;13.00;2.97;;;12.80;99.90;;;;;;5010202;28;20057;-65
2021/05/28 01:38:45;;;;;;;10.55;3.13;;;12.80;99.90;;;;;;5010533;28;20499;-65
2021/05/28 01:41:49;;;;;;;7.53;2.80;;;12.70;99.90;;;;;;5025492;28;20495;-64
2021/05/28 01:44:53;;;;;;;7.97;2.45;;;12.70;99.90;;;;;;5030218;28;20056;-65
2021/05/28 01:47:58;;;;;;;24.25;4.50;;;12.70;99.90;;;;;;5030902;28;20060;-64
2021/05/28 01:51:02;;;;;;;11.35;2.65;;;12.60;99.90;;;;;;5029763;28;20036;-64
2021/05/28 01:54:06;;;;;;;9.60;2.42;;;12.60;99.90;;;;;;5029620;28;20499;-65
2021/05/28 01:57:12;;;;;;;7.47;2.83;;;12.60;99.90;;;;;;5029787;28;20051;-65
2021/05/28 02:00:18;;;;;;;9.32;2.40;;;12.60;99.90;;;;;;5029601;28;20048;-65
2021/05/28 02:03:24;;;;;;;9.80;2.40;;;12.60;99.90;;;;;;5029656;28;20071;-65
2021/05/28 02:06:28;;;;;;;9.13;2.60;;;12.60;99.90;;;;;;5029482;28;20040;-65
2021/05/28 02:09:33;;;;;;;9.30;2.63;;;12.60;99.90;;;;;;5029586;28;20052;-65
2021/05/28 02:12:37;;;;;;;10.35;2.65;;;12.60;99.90;;;;;;5028809;28;20051;-65
2021/05/28 02:15:41;;;;;;;7.00;2.70;;;12.40;99.90;;;;;;5030063;28;20045;-65
2021/05/28 02:18:45;;;;;;;9.45;3.08;;;12.20;99.90;;;;;;5029678;28;20061;-66
2021/05/28 02:21:50;;;;;;;15.68;4.65;;;12.20;99.90;;;;;;5029315;28;20389;-65
2021/05/28 02:24:54;;;;;;;8.73;2.97;;;12.00;99.90;;;;;;5028859;28;20044;-65
2021/05/28 02:27:58;;;;;;;9.05;3.22;;;11.90;99.90;;;;;;5029924;28;20052;-65
2021/05/28 02:31:02;;;;;;;13.40;3.47;;;11.80;99.90;;;;;;5029558;28;20056;-65
2021/05/28 02:34:07;;;;;;;5.75;2.92;;;11.80;99.90;;;;;;5029271;28;20073;-65
2021/05/28 02:37:11;;;;;;;9.45;3.15;;;11.80;99.90;;;;;;5029419;28;20040;-65
2021/05/28 02:40:15;;;;;;;9.88;2.90;;;11.80;99.90;;;;;;5030563;28;20045;-65
2021/05/28 02:43:20;;;;;;;11.95;3.88;;;11.80;99.90;;;;;;5033403;28;20068;-65
2021/05/28 02:46:25;;;;;;;11.75;3.63;;;11.80;99.90;;;;;;5033327;28;20846;-65
2021/05/28 02:49:30;;;;;;;7.95;3.28;;;11.80;99.90;;;;;;5033309;28;20045;-65
2021/05/28 02:52:34;;;;;;;7.78;3.22;;;11.80;99.90;;;;;;5033462;28;20041;-65
2021/05/28 02:55:39;;;;;;;15.32;3.80;;;11.90;99.90;;;;;;5031818;28;20057;-65
2021/05/28 02:58:44;;;;;;;12.20;4.22;;;11.80;99.90;;;;;;5033163;28;20060;-65
2021/05/28 03:01:49;;;;;;;10.77;3.80;;;11.50;99.90;;;;;;5033203;28;20044;-65
2021/05/28 03:04:53;;;;;;;13.93;4.53;;;11.50;99.90;;;;;;5032963;28;20060;-65
2021/05/28 03:07:57;;;;;;;15.77;5.13;;;11.30;99.90;;;;;;5033379;28;20044;-65
2021/05/28 03:11:03;;;;;;;19.08;5.00;;;11.20;99.90;;;;;;5032564;28;20064;-65
2021/05/28 03:14:07;;;;;;;11.63;4.40;;;11.20;99.90;;;;;;5033304;28;20044;-65
2021/05/28 03:17:11;;;;;;;14.43;4.85;;;11.10;99.90;;;;;;5032866;28;20040;-65
2021/05/28 03:20:24;;;;;;;14.13;5.43;;;11.00;99.90;;;;;;5032259;28;20041;-65
2021/05/28 03:23:29;;;;;;;13.70;4.30;;;10.90;99.90;;;;;;5020457;28;20056;-65
2021/05/28 03:26:33;;;;;;;14.30;4.53;;;10.80;99.90;;;;;;5032858;28;20053;-64
2021/05/28 03:29:37;;;;;;;12.88;5.57;;;10.70;99.90;;;;;;5033076;28;20037;-65
2021/05/28 03:32:42;;;;;;;11.93;5.03;;;10.70;99.90;;;;;;5033046;28;20052;-64
2021/05/28 03:35:45;;;;;;;12.15;4.53;;;10.60;99.90;;;;;;5032616;28;20049;-64
2021/05/28 03:38:49;;;;;;;13.50;4.82;;;10.50;99.90;;;;;;5032207;28;20495;-64
2021/05/28 03:41:54;;;;;;;14.02;5.00;;;10.40;99.90;;;;;;5031834;28;20049;-64
2021/05/28 03:44:58;;;;;;;12.55;4.75;;;10.50;99.90;;;;;;5032951;28;20056;-64
2021/05/28 03:48:02;;;;;;;14.77;4.68;;;10.50;99.90;;;;;;5032390;28;20052;-64
2021/05/28 03:51:05;;;;;;;10.20;4.50;;;10.50;99.90;;;;;;5031842;28;20066;-65
2021/05/28 03:54:10;;;;;;;13.45;4.90;;;10.50;99.90;;;;;;5031718;28;20041;-65
2021/05/28 03:57:14;;;;;;;8.82;5.00;;;10.50;99.90;;;;;;5032303;28;20049;-64
2021/05/28 04:00:19;;;;;;;14.48;4.68;;;10.40;99.90;;;;;;5032069;28;20044;-65
2021/05/28 04:03:23;;;;;;;11.40;5.05;;;10.40;99.90;;;;;;5031866;28;20069;-65
2021/05/28 04:06:27;;;;;;;11.48;5.13;;;10.50;99.90;;;;;;5032479;28;20107;-65
2021/05/28 04:09:31;;;;;;;13.60;4.72;;;10.40;99.90;;;;;;5030939;28;20041;-65
2021/05/28 04:12:36;;;;;;;15.75;5.47;;;10.50;99.90;;;;;;5032065;28;20068;-65
2021/05/28 04:15:43;;;;;;;16.15;5.35;;;10.50;99.90;;;;;;5032017;28;20061;-65
2021/05/28 04:18:47;;;;;;;16.65;4.93;;;10.50;99.90;;;;;;5031393;28;20036;-65
2021/05/28 04:21:52;;;;;;;11.50;4.55;;;10.60;99.90;;;;;;5031782;28;20041;-65
2021/05/28 04:24:56;;;;;;;11.75;4.72;;;10.70;99.90;;;;;;5030380;28;20044;-65
2021/05/28 04:28:00;;;;;;;8.13;3.97;;;10.80;99.90;;;;;;5030285;28;20052;-64
2021/05/28 04:31:05;;;;;;;9.40;4.25;;;10.90;99.90;;;;;;5017432;28;20040;-65
2021/05/28 04:34:09;;;;;;;10.82;3.90;;;12.50;99.90;;;;;;5030477;28;20041;-65
2021/05/28 04:37:13;;;;;;;13.73;4.28;;;14.70;99.90;;;;;;5031085;28;20523;-65
2021/05/28 04:40:19;;;;;;;9.63;3.25;;;16.30;99.90;;;;;;5027643;28;20508;-65
2021/05/28 04:43:24;;;;;;;12.00;3.25;;;17.60;99.90;;;;;;5031017;28;20447;-66
2021/05/28 04:46:28;;;;;;;9.32;3.40;;;19.10;99.90;;;;;;5030697;28;20044;-65
2021/05/28 04:49:33;;;;;;;11.52;3.00;;;20.30;99.90;;;;;;5030676;28;20064;-66
2021/05/28 04:52:37;;;;;;;8.20;2.92;;;21.30;99.90;;;;;;5031028;28;20044;-65
2021/05/28 04:55:40;;;;;;;6.40;2.90;;;21.80;99.90;;;;;;5029673;28;20400;-66
2021/05/28 04:58:45;;;;;;;14.13;4.07;;;21.60;99.90;;;;;;5026992;28;20048;-65
2021/05/28 05:01:49;;;;;;;10.65;3.90;;;21.90;99.90;;;;;;5026980;28;20040;-65
2021/05/28 05:04:53;;;;;;;10.80;3.70;;;22.30;99.90;;;;;;5028413;28;20041;-66
2021/05/28 05:07:57;;;;;;;13.18;6.68;;;22.80;98.90;;;;;;5029126;28;20041;-65
2021/05/28 05:11:03;;;;;;;15.70;5.68;;;22.80;97.50;;;;;;5011174;28;20048;-65
2021/05/28 05:14:08;;;;;;;11.10;4.63;;;22.30;97.10;;;;;;5022477;28;20405;-65
2021/05/28 05:17:12;;;;;;;12.15;4.32;;;21.60;98.80;;;;;;5012113;28;20048;-65
2021/05/28 05:20:17;;;;;;;13.65;4.35;;;21.90;98.20;;;;;;5027772;28;20515;-65
2021/05/28 05:23:22;;;;;;;23.85;10.27;;;22.30;97.60;;;;;;5030073;28;20048;-66
2021/05/28 05:26:26;;;;;;;28.50;9.68;;;22.40;97.70;;;;;;5030100;28;20053;-66
2021/05/28 05:29:30;;;;;;;16.80;5.80;;;22.20;98.10;;;;;;5030748;28;20056;-66
2021/05/28 05:32:35;;;;;;;11.05;4.57;;;22.60;97.20;;;;;;5030436;28;20056;-66
2021/05/28 05:35:39;;;;;;;11.57;5.15;;;22.70;96.60;;;;;;5029194;28;20534;-66
2021/05/28 05:38:43;;;;;;;8.32;3.85;;;20.40;98.60;;;;;;5009342;28;20041;-66
2021/05/28 05:41:48;;;;;;;11.80;4.93;;;19.40;99.60;;;;;;5024155;28;20036;-66
2021/05/28 05:44:52;;;;;;;12.18;4.22;;;18.20;99.90;;;;;;5010642;28;20045;-67
2021/05/28 05:47:56;;;;;;;12.77;4.70;;;19.70;99.90;;;;;;5010585;28;20500;-66
2021/05/28 05:51:01;;;;;;;12.35;3.97;;;20.80;99.60;;;;;;4998023;28;20056;-66
2021/05/28 05:54:06;;;;;;;9.27;3.67;;;22.30;98.60;;;;;;5016316;28;20044;-66
2021/05/28 05:57:10;;;;;;;10.35;3.33;;;22.30;97.80;;;;;;5019145;28;20033;-66
2021/05/28 06:00:14;;;;;;;10.38;3.88;;;20.90;97.70;;;;;;5014286;28;20049;-66
2021/05/28 06:03:18;;;;;;;7.18;3.17;;;21.50;98.50;;;;;;5018932;28;20519;-66
2021/05/28 06:06:23;;;;;;;17.10;7.55;;;22.80;97.90;;;;;;5023243;28;20188;-65
2021/05/28 06:09:27;;;;;;;29.58;9.68;;;23.90;96.70;;;;;;5013216;28;20041;-66
2021/05/28 06:12:31;;;;;;;7.55;4.20;;;24.50;95.30;;;;;;5027788;28;20057;-66
2021/05/28 06:15:35;;;;;;;12.13;3.53;;;24.70;93.20;;;;;;5028675;28;20040;-66
2021/05/28 06:18:40;;;;;;;10.68;4.80;;;24.70;93.70;;;;;;5029784;28;20048;-66
2021/05/28 06:21:44;;;;;;;19.00;7.75;;;23.90;94.40;;;;;;5022277;28;20061;-66
2021/05/28 06:24:50;;;;;;;15.85;6.93;;;23.50;94.10;;;;;;5014989;28;20120;-66
2021/05/28 06:27:54;;;;;;;15.55;7.15;;;24.20;93.90;;;;;;5014618;28;20065;-66
2021/05/28 06:30:59;;;;;;;18.30;6.65;;;23.80;93.50;;;;;;5021970;28;20036;-66
2021/05/28 06:34:04;;;;;;;14.13;4.70;;;22.10;94.90;;;;;;5026056;28;20044;-66
2021/05/28 06:37:09;;;;;;;10.77;3.65;;;21.70;95.90;;;;;;5027130;28;20041;-67
2021/05/28 06:40:13;;;;;;;7.97;2.95;;;21.70;96.30;;;;;;5014526;28;20579;-67
2021/05/28 06:43:17;;;;;;;8.43;2.90;;;22.90;95.10;;;;;;5028338;28;20048;-67
2021/05/28 06:46:21;;;;;;;9.32;3.33;;;22.90;94.20;;;;;;5020027;28;20052;-66
2021/05/28 06:49:25;;;;;;;6.95;2.90;;;23.50;94.30;;;;;;5028558;28;20052;-67
2021/05/28 06:52:30;;;;;;;8.63;3.25;;;24.00;94.00;;;;;;5027475;28;20049;-66
2021/05/28 06:55:37;;;;;;;7.03;2.47;;;24.20;93.50;;;;;;5021438;28;20052;-66
2021/05/28 06:58:47;;;;;;;7.18;2.53;;;24.90;93.40;;;;;;5023744;28;20044;-67
2021/05/28 07:01:51;;;;;;;5.43;2.90;;;26.30;92.40;;;;;;5027376;28;20036;-67
2021/05/28 07:04:55;;;;;;;10.38;3.10;;;25.70;91.50;;;;;;5025728;28;20060;-67
2021/05/28 07:08:00;;;;;;;6.63;2.78;;;26.60;91.10;;;;;;5014360;28;20045;-66
2021/05/28 07:11:07;;;;;;;9.50;2.13;;;27.60;89.80;;;;;;5012453;28;20053;-66
2021/05/28 07:14:11;;;;;;;10.50;2.50;;;29.00;86.90;;;;;;5025500;28;20499;-66
2021/05/28 07:17:24;;;;;;;8.70;2.47;;;29.70;85.10;;;;;;5030198;28;20051;-66
2021/05/28 07:20:28;;;;;;;6.47;2.05;;;27.70;82.60;;;;;;5029247;28;20049;-68
2021/05/28 07:23:32;;;;;;;8.27;2.33;;;27.80;85.30;;;;;;5018372;28;20091;-68
2021/05/28 07:26:37;;;;;;;6.57;2.33;;;28.40;83.20;;;;;;5028568;28;20056;-68
2021/05/28 07:29:41;;;;;;;7.85;2.47;;;28.70;83.10;;;;;;5029921;28;20048;-68
2021/05/28 07:32:45;;;;;;;8.13;2.78;;;29.50;83.00;;;;;;5020153;28;20133;-69
2021/05/28 07:35:49;;;;;;;4.18;1.77;;;29.00;84.80;;;;;;5033040;28;20044;-69
2021/05/28 07:38:54;;;;;;;6.55;2.60;;;29.80;82.70;;;;;;5032201;28;20050;-69
2021/05/28 07:42:00;;;;;;;6.00;2.17;;;29.00;83.10;;;;;;5027039;28;20718;-69
2021/05/28 07:45:05;;;;;;;5.20;2.20;;;27.30;84.30;;;;;;5023153;28;20590;-68
2021/05/28 07:48:09;;;;;;;5.20;2.15;;;27.90;84.00;;;;;;5020786;28;20048;-67
2021/05/28 07:51:15;;;;;;;6.53;2.22;;;29.20;81.80;;;;;;5032312;28;20386;-66
2021/05/28 07:54:20;;;;;;;3.63;1.92;;;30.60;80.30;;;;;;5032333;28;20486;-66
2021/05/28 07:57:25;;;;;;;7.93;2.45;;;32.10;75.60;;;;;;5033143;28;20053;-68
2021/05/28 08:00:29;;;;;;;4.28;1.80;;;32.50;75.30;;;;;;5022592;28;20044;-66
2021/05/28 08:03:33;;;;;;;5.15;1.88;;;32.50;73.10;;;;;;5020896;28;20068;-67
2021/05/28 08:06:37;;;;;;;7.85;2.72;;;32.20;71.90;;;;;;5032609;28;20053;-67
2021/05/28 08:09:42;;;;;;;6.60;2.13;;;32.70;72.70;;;;;;5032050;28;20044;-67
2021/05/28 08:12:47;;;;;;;6.95;2.28;;;33.30;71.60;;;;;;5024868;28;20029;-67
2021/05/28 08:15:54;;;;;;;5.90;2.30;;;32.10;70.70;;;;;;5031770;28;20064;-68
2021/05/28 08:18:58;;;;;;;6.40;2.30;;;32.70;72.10;;;;;;5032220;28;20060;-67
2021/05/28 08:22:03;;;;;;;8.88;2.42;;;33.40;72.10;;;;;;5031341;28;20067;-68
2021/05/28 08:25:08;;;;;;;5.00;2.55;;;34.30;70.90;;;;;;5031421;28;20044;-67
2021/05/28 08:28:12;;;;;;;9.88;2.90;;;35.80;68.50;;;;;;5032425;28;20056;-67
2021/05/28 08:31:18;;;;;;;6.13;2.70;;;35.90;68.20;;;;;;5014309;28;20040;-65
2021/05/28 08:34:22;;;;;;;6.60;2.67;;;34.30;67.20;;;;;;5027968;28;20478;-66
2021/05/28 08:37:26;;;;;;;13.65;2.78;;;34.80;67.20;;;;;;5030955;28;20415;-67
2021/05/28 08:40:32;;;;;;;7.53;2.47;;;35.00;65.10;;;;;;5019420;28;20048;-67
2021/05/28 08:43:40;;;;;;;8.32;2.28;;;35.60;64.90;;;;;;5012330;28;20117;-67
2021/05/28 08:46:46;;;;;;;9.35;2.40;;;37.00;65.00;;;;;;5000022;28;20492;-67
2021/05/28 08:49:52;;;;;;;6.75;2.33;;;37.40;64.00;;;;;;5029188;28;20048;-67
2021/05/28 08:52:59;;;;;;;6.47;2.00;;;38.00;62.60;;;;;;5018795;28;20101;-67
2021/05/28 08:56:08;;;;;;;6.50;1.90;;;38.80;60.80;;;;;;5011235;28;20053;-67
2021/05/28 08:59:12;;;;;;;5.28;1.60;;;38.10;59.40;;;;;;5011464;28;20037;-67
2021/05/28 09:02:35;;;;;;;5.13;1.85;;;38.40;59.90;;;;;;5018328;28;20060;-67
2021/05/28 09:05:39;;;;;;;7.40;2.22;;;39.20;58.10;;;;;;5024668;28;20052;-68
2021/05/28 09:08:43;;;;;;;5.28;1.90;;;40.30;58.60;;;;;;5019304;28;20061;-67
2021/05/28 09:12:02;;;;;;;4.68;1.67;;;41.00;56.60;;;;;;5017339;28;20048;-66
2021/05/28 09:15:18;;;;;;;8.02;1.80;;;40.80;56.00;;;;;;5009750;28;20048;-66
2021/05/28 09:18:39;;;;;;;8.80;2.08;;;41.40;57.10;;;;;;5027643;28;20032;-69
2021/05/28 09:21:54;;;;;;;6.40;1.90;;;40.50;55.10;;;;;;5012883;28;20060;-68
2021/05/28 09:24:59;;;;;;;2.88;1.40;;;38.30;54.90;;;;;;5026143;28;20040;-66
2021/05/28 09:28:08;;;;;;;5.68;2.13;;;39.00;56.80;;;;;;5030659;28;20483;-66
2021/05/28 09:31:27;;;;;;;5.00;1.60;;;39.50;55.60;;;;;;4998302;28;20496;-67
2021/05/28 09:34:49;;;;;;;4.80;1.63;;;38.90;54.50;;;;;;5030266;28;20052;-69
2021/05/28 09:37:54;;;;;;;4.55;1.90;;;38.90;57.00;;;;;;5031260;28;20068;-69
2021/05/28 09:40:58;;;;;;;5.70;1.75;;;39.70;56.80;;;;;;5018190;28;20049;-70
2021/05/28 09:44:07;;;;;;;7.60;2.00;;;40.50;57.10;;;;;;5031254;28;20047;-68
2021/05/28 09:47:17;;;;;;;3.70;1.73;;;37.80;56.50;;;;;;5026148;28;20380;-67
2021/05/28 09:50:22;;;;;;;3.53;1.50;;;38.80;57.40;;;;;;5009275;28;20057;-66
2021/05/28 09:53:41;;;;;;;4.22;1.40;;;40.80;57.10;;;;;;5027847;28;20045;-68
2021/05/28 09:56:45;;;;;;;5.80;1.60;;;42.50;55.20;;;;;;5008411;28;20061;-68
2021/05/28 09:59:49;;;;;;;4.90;1.42;;;43.50;53.10;;;;;;5010339;28;20049;-68
2021/05/28 10:03:14;;;;;;;4.55;1.55;;;44.10;52.90;;;;;;5016767;28;20049;-66
2021/05/28 10:06:18;;;;;;;6.68;1.70;;;44.30;53.00;;;;;;5022023;28;20048;-65
2021/05/28 10:09:23;;;;;;;2.95;1.40;;;44.70;51.70;;;;;;5029336;28;20064;-68
2021/05/28 10:12:28;;;;;;;5.47;1.67;;;44.50;52.30;;;;;;5029297;28;20040;-67
2021/05/28 10:15:33;;;;;;;11.35;1.50;;;44.20;52.60;;;;;;5029643;28;20147;-66
2021/05/28 10:18:37;;;;;;;4.93;1.40;;;44.40;51.90;;;;;;5027517;28;20049;-65
2021/05/28 10:21:44;;;;;;;5.18;1.75;;;44.40;50.80;;;;;;5026794;28;20033;-66
2021/05/28 10:24:48;;;;;;;3.53;1.20;;;44.60;49.60;;;;;;5029140;28;20499;-67
2021/05/28 10:27:55;;;;;;;4.35;1.20;;;43.80;49.40;;;;;;5029498;28;20064;-66
2021/05/28 10:31:01;;;;;;;4.72;1.50;;;43.50;50.50;;;;;;5029331;28;20044;-68
2021/05/28 10:34:05;;;;;;;5.00;1.60;;;38.60;49.50;;;;;;5028998;28;20057;-67
2021/05/28 10:37:27;;;;;;;4.35;1.70;;;39.00;51.50;;;;;;5028862;28;20048;-68
2021/05/28 10:40:33;;;;;;;9.43;1.92;;;38.20;53.50;;;;;;5018320;28;20037;-68
2021/05/28 10:43:58;;;;;;;9.02;1.70;;;40.40;53.50;;;;;;5029656;28;20044;-68
2021/05/28 10:47:13;;;;;;;6.30;1.83;;;40.30;51.10;;;;;;5029354;28;20152;-67
2021/05/28 10:50:18;;;;;;;4.32;1.42;;;38.90;50.80;;;;;;5027637;28;20499;-68
2021/05/28 10:53:22;;;;;;;4.40;1.70;;;36.00;53.00;;;;;;5029061;28;20044;-69
2021/05/28 10:56:44;;;;;;;7.63;1.60;;;38.10;54.40;;;;;;5028561;28;20053;-68
2021/05/28 10:59:57;;;;;;;3.72;1.60;;;37.00;53.80;;;;;;5023024;28;20041;-69
2021/05/28 11:03:10;;;;;;;9.00;2.15;;;36.50;55.60;;;;;;5032552;28;20048;-69
2021/05/28 11:06:14;;;;;;;3.08;1.30;;;38.50;54.50;;;;;;5033135;28;20505;-69
2021/05/28 11:09:18;;;;;;;3.65;1.40;;;40.40;53.60;;;;;;5032529;28;20056;-71
2021/05/28 11:12:25;;;;;;;4.18;1.58;;;40.80;52.80;;;;;;5026501;28;20048;-68
2021/05/28 11:15:32;;;;;;;5.35;1.60;;;41.70;52.20;;;;;;5033761;28;20392;-68
2021/05/28 11:18:45;;;;;;;3.70;1.40;;;42.10;51.20;;;;;;5014147;28;20037;-68
2021/05/28 11:21:58;;;;;;;2.85;1.35;;;42.40;50.30;;;;;;5012945;28;20053;-68
2021/05/28 11:25:14;;;;;;;5.93;1.70;;;42.80;49.40;;;;;;5011873;28;20508;-67
2021/05/28 11:28:20;;;;;;;7.45;1.52;;;42.80;49.20;;;;;;5026612;28;20411;-68
2021/05/28 11:31:28;;;;;;;7.60;2.13;;;42.10;50.00;;;;;;5029580;28;20044;-69
2021/05/28 11:35:11;;;;;;;2.75;1.60;;;39.20;48.60;;;;;;5032884;28;20404;-69
2021/05/28 11:38:30;;;;;;;5.72;1.50;;;34.10;51.80;;;;;;5024079;28;20036;-67
2021/05/28 11:41:45;;;;;;;4.10;1.48;;;34.00;53.80;;;;;;5013050;28;20049;-68
2021/05/28 11:44:53;;;;;;;6.88;1.98;;;33.90;54.30;;;;;;5011877;28;20053;-67
2021/05/28 11:47:58;;;;;;;8.38;1.80;;;35.80;55.20;;;;;;5017261;28;20045;-67
2021/05/28 11:51:04;;;;;;;5.35;1.70;;;37.20;53.50;;;;;;5016704;28;20598;-68
2021/05/28 11:54:20;;;;;;;5.25;1.98;;;37.60;52.30;;;;;;5010864;28;20052;-68
2021/05/28 11:57:24;;;;;;;6.57;1.73;;;37.40;52.80;;;;;;5013581;28;20045;-68
2021/05/28 12:00:31;;;;;;;5.50;1.70;;;37.50;53.10;;;;;;5011645;28;20044;-69
2021/05/28 12:03:35;;;;;;;4.75;1.92;;;37.40;52.60;;;;;;5014339;28;20041;-68
2021/05/28 12:06:39;;;;;;;6.63;1.83;;;36.70;51.70;;;;;;5002255;28;20504;-66
2021/05/28 12:10:07;;;;;;;4.88;1.90;;;36.80;52.60;;;;;;5009944;28;20045;-69
2021/05/28 12:13:24;;;;;;;5.70;1.55;;;35.70;54.20;;;;;;5013847;28;20385;-68
2021/05/28 12:16:29;;;;;;;3.85;1.60;;;35.60;54.00;;;;;;5011902;28;20070;-68
2021/05/28 12:19:40;;;;;;;7.05;1.92;;;35.80;53.50;;;;;;5012676;28;20416;-68
2021/05/28 12:23:04;;;;;;;6.15;1.73;;;36.30;52.90;;;;;;5011831;28;20053;-67
2021/05/28 12:26:13;;;;;;;5.40;1.58;;;36.40;51.90;;;;;;5012212;28;20033;-68
2021/05/28 12:29:17;;;;;;;5.93;1.98;;;35.00;53.00;;;;;;5021401;28;20056;-67
2021/05/28 12:32:21;;;;;;;7.20;1.65;;;31.70;55.70;;;;;;5013679;28;20045;-68
2021/05/28 12:35:27;;;;;;;5.65;1.73;;;32.70;55.40;;;;;;5004161;28;20037;-68
2021/05/28 12:38:33;;;;;;;5.70;1.55;;;32.10;54.30;;;;;;5018781;28;20408;-67
2021/05/28 12:41:42;;;;;;;5.22;1.90;;;32.80;57.50;;;;;;5014372;28;20060;-68
2021/05/28 12:44:46;;;;;;;5.07;1.90;;;30.60;57.30;;;;;;5013853;28;20052;-67
2021/05/28 12:47:52;;;;;;;4.22;1.95;;;31.00;56.60;;;;;;5019582;28;20036;-68
2021/05/28 12:51:00;;;;;;;9.40;1.92;;;32.30;56.30;;;;;;5012660;28;20080;-68
2021/05/28 12:54:14;;;;;;;5.72;1.90;;;31.70;53.60;;;;;;5016804;28;20037;-68
2021/05/28 12:57:20;;;;;;;10.18;2.28;;;30.30;56.40;;;;;;5010923;28;20045;-69
2021/05/28 13:00:38;;;;;;;6.10;1.70;;;28.90;58.60;;;;;;5012863;28;20045;-68
2021/05/28 13:03:45;;;;;;;3.15;1.52;;;30.00;59.10;;;;;;5030365;28;20045;-68
2021/05/28 13:06:51;;;;;;;4.53;1.70;;;31.40;54.10;;;;;;5029574;28;20040;-69
2021/05/28 13:09:56;;;;;;;4.35;1.73;;;32.10;55.80;;;;;;5029794;28;20040;-68
2021/05/28 13:13:24;;;;;;;3.47;1.58;;;29.80;56.70;;;;;;5018097;28;20040;-67
2021/05/28 13:16:29;;;;;;;3.65;1.52;;;30.70;55.50;;;;;;5030063;28;20582;-70
2021/05/28 13:19:33;;;;;;;6.35;1.77;;;31.60;55.10;;;;;;5030980;28;20040;-68
2021/05/28 13:22:48;;;;;;;5.50;1.67;;;32.20;55.70;;;;;;5021035;28;20040;-68
2021/05/28 13:25:52;;;;;;;3.63;1.55;;;30.90;55.30;;;;;;5022761;28;20551;-67
2021/05/28 13:29:06;;;;;;;3.47;1.60;;;30.70;54.70;;;;;;5019147;28;20392;-69
2021/05/28 13:32:10;;;;;;;3.33;1.65;;;29.30;56.80;;;;;;5020269;28;20040;-67
2021/05/28 13:35:15;;;;;;;4.60;2.03;;;29.50;55.80;;;;;;5014824;28;20057;-68
2021/05/28 13:38:20;;;;;;;3.17;1.27;;;28.80;55.90;;;;;;5020999;28;20049;-67
2021/05/28 13:44:40;;;;;;;2.47;1.50;;;29.10;58.60;;;;;;5016298;28;20492;-67
2021/05/28 13:47:44;;;;;;;3.38;1.67;;;28.60;58.70;;;;;;5021233;28;20385;-68
2021/05/28 13:50:50;;;;;;;6.47;1.55;;;29.60;60.00;;;;;;5020440;28;20040;-67
2021/05/28 13:53:53;;;;;;;6.05;2.35;;;30.20;57.00;;;;;;5016363;28;20052;-67
2021/05/28 13:56:58;;;;;;;6.20;2.05;;;30.10;56.10;;;;;;5011132;28;20053;-70
2021/05/28 14:00:08;;;;;;;3.00;1.60;;;29.50;57.40;;;;;;5011677;28;20045;-68
2021/05/28 14:03:17;;;;;;;3.63;1.80;;;28.80;57.80;;;;;;5019281;28;20045;-68
2021/05/28 14:06:21;;;;;;;6.53;2.00;;;29.00;58.80;;;;;;5019504;28;20060;-68
2021/05/28 14:09:25;;;;;;;3.50;1.60;;;29.70;59.10;;;;;;5004490;28;20056;-70
2021/05/28 14:12:31;;;;;;;5.95;1.88;;;30.40;59.50;;;;;;5011010;28;20048;-69
2021/05/28 14:15:36;;;;;;;3.53;1.60;;;30.30;59.10;;;;;;5009679;28;20056;-69
2021/05/28 14:18:40;;;;;;;5.85;1.70;;;30.60;57.40;;;;;;5017810;28;20037;-68
2021/05/28 14:21:44;;;;;;;3.38;1.27;;;31.00;56.10;;;;;;5014103;28;20387;-68
2021/05/28 14:24:49;;;;;;;5.10;1.52;;;31.00;53.70;;;;;;5015826;28;20420;-68
2021/05/28 14:27:55;;;;;;;3.63;1.55;;;30.40;53.00;;;;;;5030121;28;20044;-68
2021/05/28 14:31:00;;;;;;;3.55;1.60;;;29.80;53.40;;;;;;5018552;28;20040;-68
2021/05/28 14:34:05;;;;;;;4.85;1.63;;;29.50;54.30;;;;;;5013070;28;20527;-68
2021/05/28 14:37:10;;;;;;;4.88;1.50;;;29.50;55.20;;;;;;5024547;28;20543;-69
2021/05/28 14:40:17;;;;;;;6.82;1.70;;;29.50;55.00;;;;;;5021803;28;20048;-68
2021/05/28 14:43:21;;;;;;;3.35;1.50;;;29.50;54.50;;;;;;5022694;28;20523;-69
2021/05/28 14:46:25;;;;;;;4.65;1.77;;;29.30;54.10;;;;;;5023165;28;20044;-69
2021/05/28 14:49:31;;;;;;;3.97;1.70;;;29.40;55.80;;;;;;5023103;28;20048;-70
2021/05/28 14:52:35;;;;;;;4.07;1.38;;;28.80;55.10;;;;;;5023382;28;20041;-68
2021/05/28 14:55:40;;;;;;;3.55;1.48;;;28.30;55.90;;;;;;5021561;28;20037;-69
2021/05/28 14:58:44;;;;;;;3.22;1.63;;;28.80;57.80;;;;;;5026787;28;20036;-68
2021/05/28 15:01:52;;;;;;;3.03;1.80;;;29.10;57.00;;;;;;5023293;28;20053;-68
2021/05/28 15:04:56;;;;;;;3.95;1.40;;;29.30;57.70;;;;;;5029798;28;20380;-69
2021/05/28 15:08:02;;;;;;;4.07;1.65;;;29.50;59.90;;;;;;5027617;28;20033;-71
2021/05/28 15:11:07;;;;;;;3.70;1.60;;;29.40;58.70;;;;;;5028524;28;20049;-70
2021/05/28 15:14:10;;;;;;;3.35;1.40;;;29.50;58.60;;;;;;5030582;28;20044;-68
2021/05/28 15:17:16;;;;;;;2.85;1.50;;;29.60;57.60;;;;;;5022907;28;20052;-69
2021/05/28 15:20:20;;;;;;;3.75;1.65;;;29.40;59.30;;;;;;5024759;28;20109;-69
2021/05/28 15:23:25;;;;;;;4.53;1.67;;;29.50;61.30;;;;;;5024555;28;20040;-69
2021/05/28 15:26:30;;;;;;;2.40;1.33;;;29.40;57.70;;;;;;5023726;28;20053;-70
2021/05/28 15:29:34;;;;;;;3.42;1.55;;;29.40;59.20;;;;;;5022495;28;20056;-70
2021/05/28 15:32:38;;;;;;;5.22;1.90;;;29.20;57.80;;;;;;5029598;28;20048;-69
2021/05/28 15:35:45;;;;;;;6.70;1.50;;;29.20;59.20;;;;;;5023412;28;20056;-70
2021/05/28 15:38:51;;;;;;;2.47;1.40;;;29.20;59.20;;;;;;5025139;28;20029;-71
2021/05/28 15:41:56;;;;;;;3.63;1.38;;;29.10;57.60;;;;;;5016978;28;20033;-69
2021/05/28 15:45:01;;;;;;;3.85;1.85;;;29.00;56.80;;;;;;5027985;28;20091;-70
2021/05/28 15:48:06;;;;;;;5.70;2.30;;;28.90;57.50;;;;;;5022561;28;20048;-69
2021/05/28 15:51:10;;;;;;;2.90;1.35;;;28.90;57.80;;;;;;5030490;28;20484;-71
2021/05/28 15:54:15;;;;;;;3.33;1.48;;;28.50;57.20;;;;;;5019256;28;20511;-69
2021/05/28 15:57:19;;;;;;;4.95;1.70;;;28.40;57.80;;;;;;5018475;28;20045;-69
2021/05/28 16:00:25;;;;;;;3.10;1.88;;;28.20;61.70;;;;;;5023780;28;20301;-69
2021/05/28 16:03:30;;;;;;;4.07;1.60;;;28.30;59.60;;;;;;5032520;28;20033;-69
2021/05/28 16:06:34;;;;;;;4.88;1.48;;;28.20;56.70;;;;;;5019110;28;20515;-69